sensor_id;sensor_type;location;lat;lon;timestamp;P1;durP1;ratioP1;P2;durP2;ratioP2
2868;SDS011;1442;47.448;8.582;2022-09-09T00:01:36;3.80;;;1.80;;
2868;SDS011;1442;47.448;8.582;2022-09-09T00:04:09;6.53;;;2.25;;
2868;SDS011;1442;47.448;8.582;2022-09-09T00:06:43;6.15;;;1.92;;
2868;SDS011;1442;47.448;8.582;2022-09-09T00:09:12;5.67;;;2.33;;
2868;SDS011;1442;47.448;8.582;2022-09-09T00:11:40;6.03;;;1.83;;
2868;SDS011;1442;47.448;8.582;2022-09-09T00:14:09;3.55;;;1.83;;
2868;SDS011;1442;47.448;8.582;2022-09-09T00:16:38;7.38;;;1.90;;
2868;SDS011;1442;47.448;8.582;2022-09-09T00:19:11;3.72;;;1.90;;
2868;SDS011;1442;47.448;8.582;2022-09-09T00:21:43;7.10;;;1.90;;
2868;SDS011;1442;47.448;8.582;2022-09-09T00:24:16;3.78;;;1.90;;
2868;SDS011;1442;47.448;8.582;2022-09-09T00:26:47;5.43;;;2.15;;
2868;SDS011;1442;47.448;8.582;2022-09-09T00:29:19;6.55;;;2.03;;
2868;SDS011;1442;47.448;8.582;2022-09-09T00:31:47;9.45;;;2.20;;
2868;SDS011;1442;47.448;8.582;2022-09-09T00:34:17;7.30;;;2.40;;
2868;SDS011;1442;47.448;8.582;2022-09-09T00:36:46;13.32;;;2.25;;
2868;SDS011;1442;47.448;8.582;2022-09-09T00:39:18;4.32;;;1.60;;
2868;SDS011;1442;47.448;8.582;2022-09-09T00:41:49;5.90;;;1.95;;
2868;SDS011;1442;47.448;8.582;2022-09-09T00:44:25;6.78;;;1.98;;
2868;SDS011;1442;47.448;8.582;2022-09-09T00:47:00;7.40;;;1.85;;
2868;SDS011;1442;47.448;8.582;2022-09-09T00:49:35;4.38;;;1.60;;
2868;SDS011;1442;47.448;8.582;2022-09-09T00:52:08;7.20;;;1.90;;
2868;SDS011;1442;47.448;8.582;2022-09-09T00:54:45;3.45;;;1.67;;
2868;SDS011;1442;47.448;8.582;2022-09-09T00:57:18;6.68;;;1.67;;
2868;SDS011;1442;47.448;8.582;2022-09-09T00:59:50;5.15;;;2.33;;
2868;SDS011;1442;47.448;8.582;2022-09-09T01:02:23;5.22;;;1.83;;
2868;SDS011;1442;47.448;8.582;2022-09-09T01:04:55;4.53;;;1.40;;
2868;SDS011;1442;47.448;8.582;2022-09-09T01:07:27;6.80;;;2.15;;
2868;SDS011;1442;47.448;8.582;2022-09-09T01:09:55;6.90;;;2.15;;
2868;SDS011;1442;47.448;8.582;2022-09-09T01:12:24;4.30;;;1.50;;
2868;SDS011;1442;47.448;8.582;2022-09-09T01:14:53;4.47;;;1.88;;
2868;SDS011;1442;47.448;8.582;2022-09-09T01:17:24;11.15;;;2.03;;
2868;SDS011;1442;47.448;8.582;2022-09-09T01:19:59;7.35;;;1.75;;
2868;SDS011;1442;47.448;8.582;2022-09-09T01:22:31;5.75;;;1.92;;
2868;SDS011;1442;47.448;8.582;2022-09-09T01:25:13;6.37;;;2.10;;
2868;SDS011;1442;47.448;8.582;2022-09-09T01:27:44;4.05;;;1.60;;
2868;SDS011;1442;47.448;8.582;2022-09-09T01:30:13;7.25;;;2.00;;
2868;SDS011;1442;47.448;8.582;2022-09-09T01:32:42;5.05;;;2.05;;
2868;SDS011;1442;47.448;8.582;2022-09-09T01:35:10;4.70;;;1.73;;
2868;SDS011;1442;47.448;8.582;2022-09-09T01:37:39;6.55;;;2.40;;
2868;SDS011;1442;47.448;8.582;2022-09-09T01:40:07;6.38;;;2.08;;
2868;SDS011;1442;47.448;8.582;2022-09-09T01:42:34;8.80;;;2.92;;
2868;SDS011;1442;47.448;8.582;2022-09-09T01:45:02;6.22;;;2.15;;
2868;SDS011;1442;47.448;8.582;2022-09-09T01:47:30;5.93;;;1.92;;
2868;SDS011;1442;47.448;8.582;2022-09-09T01:49:58;4.35;;;1.90;;
2868;SDS011;1442;47.448;8.582;2022-09-09T01:52:25;7.07;;;2.33;;
2868;SDS011;1442;47.448;8.582;2022-09-09T01:54:52;9.15;;;2.70;;
2868;SDS011;1442;47.448;8.582;2022-09-09T01:57:20;7.82;;;2.42;;
2868;SDS011;1442;47.448;8.582;2022-09-09T01:59:52;8.32;;;2.63;;
2868;SDS011;1442;47.448;8.582;2022-09-09T02:02:26;8.85;;;2.45;;
2868;SDS011;1442;47.448;8.582;2022-09-09T02:04:56;6.78;;;2.28;;
2868;SDS011;1442;47.448;8.582;2022-09-09T02:07:32;7.88;;;2.03;;
2868;SDS011;1442;47.448;8.582;2022-09-09T02:10:02;6.45;;;2.38;;
2868;SDS011;1442;47.448;8.582;2022-09-09T02:12:32;6.80;;;2.65;;
2868;SDS011;1442;47.448;8.582;2022-09-09T02:15:00;9.07;;;2.05;;
2868;SDS011;1442;47.448;8.582;2022-09-09T02:17:32;6.10;;;2.45;;
2868;SDS011;1442;47.448;8.582;2022-09-09T02:20:02;5.25;;;1.80;;
2868;SDS011;1442;47.448;8.582;2022-09-09T02:22:30;13.23;;;2.35;;
2868;SDS011;1442;47.448;8.582;2022-09-09T02:24:59;5.38;;;1.58;;
2868;SDS011;1442;47.448;8.582;2022-09-09T02:27:26;7.60;;;2.20;;
2868;SDS011;1442;47.448;8.582;2022-09-09T02:29:54;5.82;;;1.77;;
2868;SDS011;1442;47.448;8.582;2022-09-09T02:32:23;10.50;;;2.15;;
2868;SDS011;1442;47.448;8.582;2022-09-09T02:34:53;14.13;;;2.22;;
2868;SDS011;1442;47.448;8.582;2022-09-09T02:37:23;5.40;;;2.00;;
2868;SDS011;1442;47.448;8.582;2022-09-09T02:39:53;2.72;;;1.50;;
2868;SDS011;1442;47.448;8.582;2022-09-09T02:42:20;6.15;;;2.70;;
2868;SDS011;1442;47.448;8.582;2022-09-09T02:44:48;9.35;;;1.83;;
2868;SDS011;1442;47.448;8.582;2022-09-09T02:47:18;2.58;;;1.60;;
2868;SDS011;1442;47.448;8.582;2022-09-09T02:49:48;4.88;;;1.60;;
2868;SDS011;1442;47.448;8.582;2022-09-09T02:52:20;5.18;;;1.92;;
2868;SDS011;1442;47.448;8.582;2022-09-09T02:54:49;10.38;;;2.33;;
2868;SDS011;1442;47.448;8.582;2022-09-09T02:57:19;6.97;;;1.75;;
2868;SDS011;1442;47.448;8.582;2022-09-09T02:59:48;2.83;;;1.63;;
2868;SDS011;1442;47.448;8.582;2022-09-09T03:02:17;8.45;;;1.67;;
2868;SDS011;1442;47.448;8.582;2022-09-09T03:04:44;4.85;;;2.40;;
2868;SDS011;1442;47.448;8.582;2022-09-09T03:07:15;7.65;;;2.22;;
2868;SDS011;1442;47.448;8.582;2022-09-09T03:09:44;6.57;;;1.95;;
2868;SDS011;1442;47.448;8.582;2022-09-09T03:12:11;4.22;;;1.40;;
2868;SDS011;1442;47.448;8.582;2022-09-09T03:14:38;6.15;;;1.65;;
2868;SDS011;1442;47.448;8.582;2022-09-09T03:17:06;4.80;;;1.50;;
2868;SDS011;1442;47.448;8.582;2022-09-09T03:19:34;8.30;;;2.17;;
2868;SDS011;1442;47.448;8.582;2022-09-09T03:22:02;4.82;;;1.70;;
2868;SDS011;1442;47.448;8.582;2022-09-09T03:24:30;7.47;;;1.90;;
2868;SDS011;1442;47.448;8.582;2022-09-09T03:26:58;4.93;;;2.00;;
2868;SDS011;1442;47.448;8.582;2022-09-09T03:29:25;4.10;;;1.27;;
2868;SDS011;1442;47.448;8.582;2022-09-09T03:31:52;1.70;;;1.15;;
2868;SDS011;1442;47.448;8.582;2022-09-09T03:34:19;5.53;;;1.50;;
2868;SDS011;1442;47.448;8.582;2022-09-09T03:36:47;6.40;;;1.80;;
2868;SDS011;1442;47.448;8.582;2022-09-09T03:39:15;3.28;;;1.70;;
2868;SDS011;1442;47.448;8.582;2022-09-09T03:41:42;3.95;;;1.67;;
2868;SDS011;1442;47.448;8.582;2022-09-09T03:44:12;8.88;;;1.48;;
2868;SDS011;1442;47.448;8.582;2022-09-09T03:46:39;3.55;;;1.50;;
2868;SDS011;1442;47.448;8.582;2022-09-09T03:49:06;5.25;;;1.42;;
2868;SDS011;1442;47.448;8.582;2022-09-09T03:51:35;5.72;;;1.63;;
2868;SDS011;1442;47.448;8.582;2022-09-09T03:54:03;6.70;;;1.83;;
2868;SDS011;1442;47.448;8.582;2022-09-09T03:56:33;6.57;;;1.60;;
2868;SDS011;1442;47.448;8.582;2022-09-09T03:59:00;3.70;;;1.27;;
2868;SDS011;1442;47.448;8.582;2022-09-09T04:01:29;5.60;;;1.58;;
2868;SDS011;1442;47.448;8.582;2022-09-09T04:03:56;6.82;;;1.80;;
2868;SDS011;1442;47.448;8.582;2022-09-09T04:06:23;3.92;;;1.77;;
2868;SDS011;1442;47.448;8.582;2022-09-09T04:08:51;8.07;;;1.45;;
2868;SDS011;1442;47.448;8.582;2022-09-09T04:11:18;13.15;;;1.90;;
2868;SDS011;1442;47.448;8.582;2022-09-09T04:13:45;3.40;;;1.67;;
2868;SDS011;1442;47.448;8.582;2022-09-09T04:16:12;12.10;;;2.10;;
2868;SDS011;1442;47.448;8.582;2022-09-09T04:18:41;6.82;;;2.50;;
2868;SDS011;1442;47.448;8.582;2022-09-09T04:21:08;3.42;;;1.75;;
2868;SDS011;1442;47.448;8.582;2022-09-09T04:23:37;6.28;;;1.98;;
2868;SDS011;1442;47.448;8.582;2022-09-09T04:26:04;6.22;;;1.90;;
2868;SDS011;1442;47.448;8.582;2022-09-09T04:28:32;3.42;;;1.92;;
2868;SDS011;1442;47.448;8.582;2022-09-09T04:31:03;6.47;;;2.10;;
2868;SDS011;1442;47.448;8.582;2022-09-09T04:33:31;3.95;;;1.98;;
2868;SDS011;1442;47.448;8.582;2022-09-09T04:35:59;3.60;;;1.63;;
2868;SDS011;1442;47.448;8.582;2022-09-09T04:38:26;6.18;;;2.10;;
2868;SDS011;1442;47.448;8.582;2022-09-09T04:40:54;5.32;;;1.60;;
2868;SDS011;1442;47.448;8.582;2022-09-09T04:43:22;4.68;;;1.70;;
2868;SDS011;1442;47.448;8.582;2022-09-09T04:45:50;23.95;;;5.97;;
2868;SDS011;1442;47.448;8.582;2022-09-09T04:48:18;36.00;;;9.10;;
2868;SDS011;1442;47.448;8.582;2022-09-09T04:50:53;17.63;;;4.55;;
2868;SDS011;1442;47.448;8.582;2022-09-09T04:53:21;15.05;;;3.08;;
2868;SDS011;1442;47.448;8.582;2022-09-09T04:55:48;6.20;;;1.65;;
2868;SDS011;1442;47.448;8.582;2022-09-09T04:58:15;2.28;;;1.33;;
2868;SDS011;1442;47.448;8.582;2022-09-09T05:00:43;3.47;;;1.70;;
2868;SDS011;1442;47.448;8.582;2022-09-09T05:03:10;4.80;;;2.00;;
2868;SDS011;1442;47.448;8.582;2022-09-09T05:05:37;8.20;;;2.13;;
2868;SDS011;1442;47.448;8.582;2022-09-09T05:08:05;6.05;;;1.98;;
2868;SDS011;1442;47.448;8.582;2022-09-09T05:10:36;6.60;;;2.17;;
2868;SDS011;1442;47.448;8.582;2022-09-09T05:13:03;5.60;;;2.25;;
2868;SDS011;1442;47.448;8.582;2022-09-09T05:15:31;5.57;;;2.67;;
2868;SDS011;1442;47.448;8.582;2022-09-09T05:17:58;7.10;;;2.13;;
2868;SDS011;1442;47.448;8.582;2022-09-09T05:20:26;6.47;;;1.85;;
2868;SDS011;1442;47.448;8.582;2022-09-09T05:22:53;7.28;;;2.22;;
2868;SDS011;1442;47.448;8.582;2022-09-09T05:25:20;2.78;;;1.70;;
2868;SDS011;1442;47.448;8.582;2022-09-09T05:27:50;6.85;;;1.90;;
2868;SDS011;1442;47.448;8.582;2022-09-09T05:30:18;3.95;;;1.90;;
2868;SDS011;1442;47.448;8.582;2022-09-09T05:32:45;4.63;;;1.80;;
2868;SDS011;1442;47.448;8.582;2022-09-09T05:35:13;6.72;;;1.83;;
2868;SDS011;1442;47.448;8.582;2022-09-09T05:37:40;5.55;;;1.52;;
2868;SDS011;1442;47.448;8.582;2022-09-09T05:40:07;3.47;;;1.80;;
2868;SDS011;1442;47.448;8.582;2022-09-09T05:42:36;6.53;;;1.55;;
2868;SDS011;1442;47.448;8.582;2022-09-09T05:45:05;4.20;;;1.35;;
2868;SDS011;1442;47.448;8.582;2022-09-09T05:47:33;2.67;;;1.52;;
2868;SDS011;1442;47.448;8.582;2022-09-09T05:50:02;3.10;;;1.10;;
2868;SDS011;1442;47.448;8.582;2022-09-09T05:52:29;1.20;;;1.10;;
2868;SDS011;1442;47.448;8.582;2022-09-09T05:54:56;4.07;;;1.50;;
2868;SDS011;1442;47.448;8.582;2022-09-09T05:57:24;2.58;;;1.33;;
2868;SDS011;1442;47.448;8.582;2022-09-09T05:59:51;3.42;;;1.65;;
2868;SDS011;1442;47.448;8.582;2022-09-09T06:02:20;3.65;;;1.05;;
2868;SDS011;1442;47.448;8.582;2022-09-09T06:04:47;4.28;;;1.70;;
2868;SDS011;1442;47.448;8.582;2022-09-09T06:07:14;3.05;;;1.35;;
2868;SDS011;1442;47.448;8.582;2022-09-09T06:09:42;2.85;;;1.20;;
2868;SDS011;1442;47.448;8.582;2022-09-09T06:12:09;2.97;;;1.00;;
2868;SDS011;1442;47.448;8.582;2022-09-09T06:14:36;9.98;;;1.30;;
2868;SDS011;1442;47.448;8.582;2022-09-09T06:17:03;4.75;;;1.40;;
2868;SDS011;1442;47.448;8.582;2022-09-09T06:19:32;2.92;;;1.20;;
2868;SDS011;1442;47.448;8.582;2022-09-09T06:21:59;3.45;;;1.30;;
2868;SDS011;1442;47.448;8.582;2022-09-09T06:24:26;5.50;;;1.45;;
2868;SDS011;1442;47.448;8.582;2022-09-09T06:26:55;5.10;;;1.27;;
2868;SDS011;1442;47.448;8.582;2022-09-09T06:29:22;2.70;;;1.40;;
2868;SDS011;1442;47.448;8.582;2022-09-09T06:31:49;4.45;;;1.52;;
2868;SDS011;1442;47.448;8.582;2022-09-09T06:34:16;6.72;;;1.50;;
2868;SDS011;1442;47.448;8.582;2022-09-09T06:36:45;3.22;;;1.33;;
2868;SDS011;1442;47.448;8.582;2022-09-09T06:39:12;3.42;;;1.42;;
2868;SDS011;1442;47.448;8.582;2022-09-09T06:41:40;6.45;;;1.42;;
2868;SDS011;1442;47.448;8.582;2022-09-09T06:44:07;3.42;;;1.70;;
2868;SDS011;1442;47.448;8.582;2022-09-09T06:46:36;5.10;;;1.52;;
2868;SDS011;1442;47.448;8.582;2022-09-09T06:49:05;6.63;;;1.80;;
2868;SDS011;1442;47.448;8.582;2022-09-09T06:51:33;3.30;;;1.58;;
2868;SDS011;1442;47.448;8.582;2022-09-09T06:54:02;3.47;;;1.60;;
2868;SDS011;1442;47.448;8.582;2022-09-09T06:56:32;5.35;;;1.55;;
2868;SDS011;1442;47.448;8.582;2022-09-09T06:59:00;3.35;;;1.60;;
2868;SDS011;1442;47.448;8.582;2022-09-09T07:01:29;3.30;;;1.35;;
2868;SDS011;1442;47.448;8.582;2022-09-09T07:03:57;3.67;;;1.35;;
2868;SDS011;1442;47.448;8.582;2022-09-09T07:06:25;2.30;;;1.08;;
2868;SDS011;1442;47.448;8.582;2022-09-09T07:08:53;3.72;;;0.90;;
2868;SDS011;1442;47.448;8.582;2022-09-09T07:11:22;2.30;;;1.63;;
2868;SDS011;1442;47.448;8.582;2022-09-09T07:13:50;3.92;;;1.70;;
2868;SDS011;1442;47.448;8.582;2022-09-09T07:16:18;3.30;;;1.35;;
2868;SDS011;1442;47.448;8.582;2022-09-09T07:18:46;10.45;;;1.80;;
2868;SDS011;1442;47.448;8.582;2022-09-09T07:21:15;3.95;;;1.45;;
2868;SDS011;1442;47.448;8.582;2022-09-09T07:23:42;6.25;;;2.15;;
2868;SDS011;1442;47.448;8.582;2022-09-09T07:26:10;6.63;;;1.73;;
2868;SDS011;1442;47.448;8.582;2022-09-09T07:28:39;6.35;;;1.50;;
2868;SDS011;1442;47.448;8.582;2022-09-09T07:31:07;3.50;;;1.38;;
2868;SDS011;1442;47.448;8.582;2022-09-09T07:33:38;3.50;;;1.00;;
2868;SDS011;1442;47.448;8.582;2022-09-09T07:36:07;2.00;;;1.02;;
2868;SDS011;1442;47.448;8.582;2022-09-09T07:38:37;3.65;;;1.23;;
2868;SDS011;1442;47.448;8.582;2022-09-09T07:41:05;1.30;;;0.80;;
2868;SDS011;1442;47.448;8.582;2022-09-09T07:43:34;1.48;;;1.08;;
2868;SDS011;1442;47.448;8.582;2022-09-09T07:46:02;3.95;;;1.08;;
2868;SDS011;1442;47.448;8.582;2022-09-09T07:48:30;3.40;;;1.20;;
2868;SDS011;1442;47.448;8.582;2022-09-09T07:51:05;3.10;;;1.10;;
2868;SDS011;1442;47.448;8.582;2022-09-09T07:53:32;3.15;;;0.80;;
2868;SDS011;1442;47.448;8.582;2022-09-09T07:56:02;3.45;;;1.10;;
2868;SDS011;1442;47.448;8.582;2022-09-09T07:58:29;3.67;;;1.08;;
2868;SDS011;1442;47.448;8.582;2022-09-09T08:00:56;4.28;;;1.08;;
2868;SDS011;1442;47.448;8.582;2022-09-09T08:03:25;4.38;;;1.25;;
2868;SDS011;1442;47.448;8.582;2022-09-09T08:05:52;3.10;;;1.20;;
2868;SDS011;1442;47.448;8.582;2022-09-09T08:08:19;3.45;;;0.98;;
2868;SDS011;1442;47.448;8.582;2022-09-09T08:10:46;0.85;;;0.77;;
2868;SDS011;1442;47.448;8.582;2022-09-09T08:13:13;5.40;;;1.10;;
2868;SDS011;1442;47.448;8.582;2022-09-09T08:15:40;3.15;;;0.68;;
2868;SDS011;1442;47.448;8.582;2022-09-09T08:18:08;3.63;;;1.08;;
2868;SDS011;1442;47.448;8.582;2022-09-09T08:20:37;1.15;;;0.63;;
2868;SDS011;1442;47.448;8.582;2022-09-09T08:23:04;3.38;;;1.00;;
2868;SDS011;1442;47.448;8.582;2022-09-09T08:25:31;6.07;;;1.02;;
2868;SDS011;1442;47.448;8.582;2022-09-09T08:27:59;3.40;;;1.10;;
2868;SDS011;1442;47.448;8.582;2022-09-09T08:30:26;1.92;;;1.15;;
2868;SDS011;1442;47.448;8.582;2022-09-09T08:32:54;1.42;;;1.00;;
2868;SDS011;1442;47.448;8.582;2022-09-09T08:35:21;7.63;;;1.00;;
2868;SDS011;1442;47.448;8.582;2022-09-09T08:37:54;1.35;;;0.80;;
2868;SDS011;1442;47.448;8.582;2022-09-09T08:40:22;3.53;;;1.20;;
2868;SDS011;1442;47.448;8.582;2022-09-09T08:42:53;4.97;;;1.10;;
2868;SDS011;1442;47.448;8.582;2022-09-09T08:45:24;5.30;;;1.08;;
2868;SDS011;1442;47.448;8.582;2022-09-09T08:50:35;3.20;;;1.00;;
2868;SDS011;1442;47.448;8.582;2022-09-09T08:53:05;2.55;;;0.70;;
2868;SDS011;1442;47.448;8.582;2022-09-09T08:55:38;5.57;;;0.80;;
2868;SDS011;1442;47.448;8.582;2022-09-09T08:58:09;5.60;;;1.27;;
2868;SDS011;1442;47.448;8.582;2022-09-09T09:00:39;2.17;;;0.90;;
2868;SDS011;1442;47.448;8.582;2022-09-09T09:03:11;2.70;;;1.13;;
2868;SDS011;1442;47.448;8.582;2022-09-09T09:05:42;3.38;;;0.85;;
2868;SDS011;1442;47.448;8.582;2022-09-09T09:08:15;5.18;;;1.10;;
2868;SDS011;1442;47.448;8.582;2022-09-09T09:10:46;1.58;;;0.70;;
2868;SDS011;1442;47.448;8.582;2022-09-09T09:13:14;2.65;;;1.25;;
2868;SDS011;1442;47.448;8.582;2022-09-09T09:15:42;6.13;;;1.40;;
2868;SDS011;1442;47.448;8.582;2022-09-09T09:18:11;4.20;;;0.90;;
2868;SDS011;1442;47.448;8.582;2022-09-09T09:20:42;3.40;;;1.10;;
2868;SDS011;1442;47.448;8.582;2022-09-09T09:23:12;2.80;;;0.90;;
2868;SDS011;1442;47.448;8.582;2022-09-09T09:28:12;4.05;;;1.10;;
2868;SDS011;1442;47.448;8.582;2022-09-09T09:30:42;4.47;;;1.10;;
2868;SDS011;1442;47.448;8.582;2022-09-09T09:33:14;5.75;;;0.98;;
2868;SDS011;1442;47.448;8.582;2022-09-09T09:35:43;2.50;;;0.90;;
2868;SDS011;1442;47.448;8.582;2022-09-09T09:38:13;5.25;;;1.23;;
2868;SDS011;1442;47.448;8.582;2022-09-09T09:40:48;2.95;;;0.90;;
2868;SDS011;1442;47.448;8.582;2022-09-09T09:43:19;6.25;;;1.20;;
2868;SDS011;1442;47.448;8.582;2022-09-09T09:45:46;4.50;;;1.10;;
2868;SDS011;1442;47.448;8.582;2022-09-09T09:48:14;4.38;;;1.17;;
2868;SDS011;1442;47.448;8.582;2022-09-09T09:50:46;6.28;;;1.45;;
2868;SDS011;1442;47.448;8.582;2022-09-09T09:53:17;3.47;;;1.20;;
2868;SDS011;1442;47.448;8.582;2022-09-09T09:58:14;4.32;;;0.93;;
2868;SDS011;1442;47.448;8.582;2022-09-09T10:00:48;7.65;;;1.17;;
2868;SDS011;1442;47.448;8.582;2022-09-09T10:03:21;4.00;;;0.90;;
2868;SDS011;1442;47.448;8.582;2022-09-09T10:08:16;6.38;;;1.02;;
2868;SDS011;1442;47.448;8.582;2022-09-09T10:10:47;6.70;;;1.13;;
2868;SDS011;1442;47.448;8.582;2022-09-09T10:13:18;3.45;;;1.27;;
2868;SDS011;1442;47.448;8.582;2022-09-09T10:15:52;5.35;;;1.42;;
2868;SDS011;1442;47.448;8.582;2022-09-09T10:18:30;8.50;;;1.40;;
2868;SDS011;1442;47.448;8.582;2022-09-09T10:21:03;2.30;;;0.93;;
2868;SDS011;1442;47.448;8.582;2022-09-09T10:23:39;4.82;;;1.00;;
2868;SDS011;1442;47.448;8.582;2022-09-09T10:26:15;5.50;;;0.88;;
2868;SDS011;1442;47.448;8.582;2022-09-09T10:29:03;4.40;;;1.25;;
2868;SDS011;1442;47.448;8.582;2022-09-09T10:31:36;3.60;;;1.58;;
2868;SDS011;1442;47.448;8.582;2022-09-09T10:34:10;6.18;;;1.20;;
2868;SDS011;1442;47.448;8.582;2022-09-09T10:36:39;3.42;;;1.55;;
2868;SDS011;1442;47.448;8.582;2022-09-09T10:39:12;2.88;;;1.10;;
2868;SDS011;1442;47.448;8.582;2022-09-09T10:41:44;2.55;;;0.90;;
2868;SDS011;1442;47.448;8.582;2022-09-09T10:44:28;4.00;;;0.87;;
2868;SDS011;1442;47.448;8.582;2022-09-09T10:49:54;4.90;;;1.25;;
2868;SDS011;1442;47.448;8.582;2022-09-09T10:52:27;4.50;;;1.52;;
2868;SDS011;1442;47.448;8.582;2022-09-09T10:54:57;3.20;;;1.10;;
2868;SDS011;1442;47.448;8.582;2022-09-09T10:57:28;4.32;;;1.08;;
2868;SDS011;1442;47.448;8.582;2022-09-09T10:59:57;4.10;;;0.95;;
2868;SDS011;1442;47.448;8.582;2022-09-09T11:02:26;4.60;;;0.90;;
2868;SDS011;1442;47.448;8.582;2022-09-09T11:04:56;4.65;;;1.30;;
2868;SDS011;1442;47.448;8.582;2022-09-09T11:07:25;3.38;;;1.08;;
2868;SDS011;1442;47.448;8.582;2022-09-09T11:09:56;3.85;;;1.00;;
2868;SDS011;1442;47.448;8.582;2022-09-09T11:12:25;3.45;;;1.00;;
2868;SDS011;1442;47.448;8.582;2022-09-09T11:14:54;3.70;;;1.20;;
2868;SDS011;1442;47.448;8.582;2022-09-09T11:17:25;3.90;;;1.00;;
2868;SDS011;1442;47.448;8.582;2022-09-09T11:19:54;2.42;;;1.05;;
2868;SDS011;1442;47.448;8.582;2022-09-09T11:22:24;2.80;;;1.00;;
2868;SDS011;1442;47.448;8.582;2022-09-09T11:24:54;3.97;;;1.00;;
2868;SDS011;1442;47.448;8.582;2022-09-09T11:27:25;6.85;;;1.10;;
2868;SDS011;1442;47.448;8.582;2022-09-09T11:30:05;6.35;;;1.27;;
2868;SDS011;1442;47.448;8.582;2022-09-09T11:32:48;4.22;;;1.13;;
2868;SDS011;1442;47.448;8.582;2022-09-09T11:35:24;4.78;;;1.17;;
2868;SDS011;1442;47.448;8.582;2022-09-09T11:38:01;2.85;;;1.20;;
2868;SDS011;1442;47.448;8.582;2022-09-09T11:40:31;4.07;;;1.35;;
2868;SDS011;1442;47.448;8.582;2022-09-09T11:43:01;5.65;;;0.80;;
2868;SDS011;1442;47.448;8.582;2022-09-09T11:45:30;3.60;;;1.20;;
2868;SDS011;1442;47.448;8.582;2022-09-09T11:47:59;3.10;;;0.98;;
2868;SDS011;1442;47.448;8.582;2022-09-09T11:50:31;4.20;;;1.08;;
2868;SDS011;1442;47.448;8.582;2022-09-09T11:53:03;3.13;;;1.00;;
2868;SDS011;1442;47.448;8.582;2022-09-09T11:55:31;5.43;;;1.23;;
2868;SDS011;1442;47.448;8.582;2022-09-09T11:57:59;1.58;;;0.77;;
2868;SDS011;1442;47.448;8.582;2022-09-09T12:00:28;4.78;;;1.25;;
2868;SDS011;1442;47.448;8.582;2022-09-09T12:02:57;3.55;;;1.05;;
2868;SDS011;1442;47.448;8.582;2022-09-09T12:05:24;5.40;;;1.10;;
2868;SDS011;1442;47.448;8.582;2022-09-09T12:08:04;4.90;;;1.70;;
2868;SDS011;1442;47.448;8.582;2022-09-09T12:10:32;6.63;;;1.42;;
2868;SDS011;1442;47.448;8.582;2022-09-09T12:13:07;5.40;;;1.17;;
2868;SDS011;1442;47.448;8.582;2022-09-09T12:15:35;3.00;;;0.98;;
2868;SDS011;1442;47.448;8.582;2022-09-09T12:18:14;1.80;;;1.00;;
2868;SDS011;1442;47.448;8.582;2022-09-09T12:20:49;3.42;;;1.10;;
2868;SDS011;1442;47.448;8.582;2022-09-09T12:23:24;2.08;;;0.88;;
2868;SDS011;1442;47.448;8.582;2022-09-09T12:25:57;4.00;;;1.25;;
2868;SDS011;1442;47.448;8.582;2022-09-09T12:28:26;3.22;;;0.90;;
2868;SDS011;1442;47.448;8.582;2022-09-09T12:30:57;4.43;;;1.10;;
2868;SDS011;1442;47.448;8.582;2022-09-09T12:33:32;1.38;;;0.70;;
2868;SDS011;1442;47.448;8.582;2022-09-09T12:36:00;3.47;;;0.90;;
2868;SDS011;1442;47.448;8.582;2022-09-09T12:38:30;8.40;;;1.33;;
2868;SDS011;1442;47.448;8.582;2022-09-09T12:40:58;3.47;;;1.10;;
2868;SDS011;1442;47.448;8.582;2022-09-09T12:43:26;9.27;;;1.20;;
2868;SDS011;1442;47.448;8.582;2022-09-09T12:45:54;2.92;;;0.90;;
2868;SDS011;1442;47.448;8.582;2022-09-09T12:48:25;2.95;;;0.90;;
2868;SDS011;1442;47.448;8.582;2022-09-09T12:50:55;3.87;;;1.00;;
2868;SDS011;1442;47.448;8.582;2022-09-09T12:53:23;1.92;;;1.15;;
2868;SDS011;1442;47.448;8.582;2022-09-09T12:55:54;3.00;;;0.93;;
2868;SDS011;1442;47.448;8.582;2022-09-09T12:58:22;3.28;;;1.00;;
2868;SDS011;1442;47.448;8.582;2022-09-09T13:00:50;6.22;;;0.80;;
2868;SDS011;1442;47.448;8.582;2022-09-09T13:03:18;5.97;;;1.38;;
2868;SDS011;1442;47.448;8.582;2022-09-09T13:05:46;2.50;;;1.10;;
2868;SDS011;1442;47.448;8.582;2022-09-09T13:08:13;1.23;;;0.80;;
2868;SDS011;1442;47.448;8.582;2022-09-09T13:10:46;10.10;;;1.10;;
2868;SDS011;1442;47.448;8.582;2022-09-09T13:13:14;3.15;;;1.00;;
2868;SDS011;1442;47.448;8.582;2022-09-09T13:15:48;4.25;;;1.23;;
2868;SDS011;1442;47.448;8.582;2022-09-09T13:18:16;6.10;;;1.00;;
2868;SDS011;1442;47.448;8.582;2022-09-09T13:20:46;6.35;;;1.23;;
2868;SDS011;1442;47.448;8.582;2022-09-09T13:23:13;3.28;;;1.00;;
2868;SDS011;1442;47.448;8.582;2022-09-09T13:25:42;5.50;;;1.00;;
2868;SDS011;1442;47.448;8.582;2022-09-09T13:28:21;6.03;;;1.00;;
2868;SDS011;1442;47.448;8.582;2022-09-09T13:30:55;3.67;;;0.85;;
2868;SDS011;1442;47.448;8.582;2022-09-09T13:33:29;4.80;;;0.90;;
2868;SDS011;1442;47.448;8.582;2022-09-09T13:35:58;5.03;;;1.00;;
2868;SDS011;1442;47.448;8.582;2022-09-09T13:38:26;2.78;;;0.95;;
2868;SDS011;1442;47.448;8.582;2022-09-09T13:40:55;2.55;;;0.73;;
2868;SDS011;1442;47.448;8.582;2022-09-09T13:43:28;5.32;;;1.60;;
2868;SDS011;1442;47.448;8.582;2022-09-09T13:45:57;7.70;;;0.90;;
2868;SDS011;1442;47.448;8.582;2022-09-09T13:48:25;4.47;;;0.88;;
2868;SDS011;1442;47.448;8.582;2022-09-09T13:50:56;3.80;;;0.88;;
2868;SDS011;1442;47.448;8.582;2022-09-09T13:53:23;2.45;;;0.80;;
2868;SDS011;1442;47.448;8.582;2022-09-09T13:55:51;2.28;;;0.80;;
2868;SDS011;1442;47.448;8.582;2022-09-09T13:58:18;4.00;;;1.08;;
2868;SDS011;1442;47.448;8.582;2022-09-09T14:00:47;2.25;;;0.98;;
2868;SDS011;1442;47.448;8.582;2022-09-09T14:03:15;4.55;;;1.02;;
2868;SDS011;1442;47.448;8.582;2022-09-09T14:05:43;5.03;;;1.05;;
2868;SDS011;1442;47.448;8.582;2022-09-09T14:08:12;6.25;;;0.93;;
2868;SDS011;1442;47.448;8.582;2022-09-09T14:10:41;2.40;;;0.63;;
2868;SDS011;1442;47.448;8.582;2022-09-09T14:13:08;4.28;;;0.85;;
2868;SDS011;1442;47.448;8.582;2022-09-09T14:15:37;1.45;;;0.68;;
2868;SDS011;1442;47.448;8.582;2022-09-09T14:18:05;1.60;;;0.60;;
2868;SDS011;1442;47.448;8.582;2022-09-09T14:20:32;1.83;;;0.73;;
2868;SDS011;1442;47.448;8.582;2022-09-09T14:22:59;1.10;;;0.60;;
2868;SDS011;1442;47.448;8.582;2022-09-09T14:25:26;4.72;;;0.90;;
2868;SDS011;1442;47.448;8.582;2022-09-09T14:27:53;2.55;;;0.70;;
2868;SDS011;1442;47.448;8.582;2022-09-09T14:30:21;3.53;;;1.00;;
2868;SDS011;1442;47.448;8.582;2022-09-09T14:32:48;5.30;;;0.98;;
2868;SDS011;1442;47.448;8.582;2022-09-09T14:35:17;2.35;;;0.85;;
2868;SDS011;1442;47.448;8.582;2022-09-09T14:37:44;4.20;;;1.13;;
2868;SDS011;1442;47.448;8.582;2022-09-09T14:40:11;9.00;;;1.10;;
2868;SDS011;1442;47.448;8.582;2022-09-09T14:42:40;4.00;;;0.88;;
2868;SDS011;1442;47.448;8.582;2022-09-09T14:45:07;4.22;;;1.00;;
2868;SDS011;1442;47.448;8.582;2022-09-09T14:47:34;4.35;;;0.80;;
2868;SDS011;1442;47.448;8.582;2022-09-09T14:50:03;3.70;;;1.15;;
2868;SDS011;1442;47.448;8.582;2022-09-09T14:52:32;6.72;;;1.35;;
2868;SDS011;1442;47.448;8.582;2022-09-09T14:54:59;1.70;;;0.80;;
2868;SDS011;1442;47.448;8.582;2022-09-09T14:57:26;7.63;;;1.80;;
2868;SDS011;1442;47.448;8.582;2022-09-09T14:59:53;6.40;;;1.10;;
2868;SDS011;1442;47.448;8.582;2022-09-09T15:02:21;5.70;;;1.20;;
2868;SDS011;1442;47.448;8.582;2022-09-09T15:04:48;2.78;;;0.80;;
2868;SDS011;1442;47.448;8.582;2022-09-09T15:07:16;2.30;;;0.70;;
2868;SDS011;1442;47.448;8.582;2022-09-09T15:09:45;2.53;;;1.10;;
2868;SDS011;1442;47.448;8.582;2022-09-09T15:12:13;4.38;;;1.05;;
2868;SDS011;1442;47.448;8.582;2022-09-09T15:14:40;7.22;;;1.00;;
2868;SDS011;1442;47.448;8.582;2022-09-09T15:17:07;2.95;;;0.82;;
2868;SDS011;1442;47.448;8.582;2022-09-09T15:19:34;4.18;;;0.90;;
2868;SDS011;1442;47.448;8.582;2022-09-09T15:22:02;3.45;;;0.80;;
2868;SDS011;1442;47.448;8.582;2022-09-09T15:24:30;3.15;;;1.13;;
2868;SDS011;1442;47.448;8.582;2022-09-09T15:26:58;4.43;;;0.70;;
2868;SDS011;1442;47.448;8.582;2022-09-09T15:29:25;5.35;;;0.70;;
2868;SDS011;1442;47.448;8.582;2022-09-09T15:31:53;3.00;;;0.82;;
2868;SDS011;1442;47.448;8.582;2022-09-09T15:34:20;2.92;;;1.00;;
2868;SDS011;1442;47.448;8.582;2022-09-09T15:36:47;2.22;;;0.80;;
2868;SDS011;1442;47.448;8.582;2022-09-09T15:39:15;2.55;;;0.80;;
2868;SDS011;1442;47.448;8.582;2022-09-09T15:41:43;6.47;;;0.77;;